sensor_id;sensor_type;location;lat;lon;timestamp;P1;durP1;ratioP1;P2;durP2;ratioP2
49972;SDS011;71845;49.798;10.968;2023-11-22T00:00:02;5.22;;;2.40;;
49972;SDS011;71845;49.798;10.968;2023-11-22T00:02:29;4.80;;;2.30;;
49972;SDS011;71845;49.798;10.968;2023-11-22T00:04:56;5.80;;;2.33;;
49972;SDS011;71845;49.798;10.968;2023-11-22T00:07:23;4.18;;;2.22;;
49972;SDS011;71845;49.798;10.968;2023-11-22T00:09:49;5.53;;;2.80;;
49972;SDS011;71845;49.798;10.968;2023-11-22T00:12:17;7.18;;;3.28;;
49972;SDS011;71845;49.798;10.968;2023-11-22T00:14:44;4.80;;;2.20;;
49972;SDS011;71845;49.798;10.968;2023-11-22T00:17:13;4.72;;;2.33;;
49972;SDS011;71845;49.798;10.968;2023-11-22T00:19:42;5.93;;;2.55;;
49972;SDS011;71845;49.798;10.968;2023-11-22T00:22:10;4.82;;;2.53;;
49972;SDS011;71845;49.798;10.968;2023-11-22T00:24:38;4.47;;;2.33;;
49972;SDS011;71845;49.798;10.968;2023-11-22T00:27:05;5.18;;;2.53;;
49972;SDS011;71845;49.798;10.968;2023-11-22T00:29:33;5.90;;;2.47;;
49972;SDS011;71845;49.798;10.968;2023-11-22T00:32:01;5.40;;;2.78;;
49972;SDS011;71845;49.798;10.968;2023-11-22T00:34:29;4.60;;;2.17;;
49972;SDS011;71845;49.798;10.968;2023-11-22T00:36:56;4.68;;;2.30;;
49972;SDS011;71845;49.798;10.968;2023-11-22T00:39:23;7.70;;;2.67;;
49972;SDS011;71845;49.798;10.968;2023-11-22T00:41:50;5.13;;;2.45;;
49972;SDS011;71845;49.798;10.968;2023-11-22T00:44:16;6.50;;;2.38;;
49972;SDS011;71845;49.798;10.968;2023-11-22T00:46:44;4.93;;;2.78;;
49972;SDS011;71845;49.798;10.968;2023-11-22T00:49:11;5.13;;;2.28;;
49972;SDS011;71845;49.798;10.968;2023-11-22T00:51:39;4.10;;;2.28;;
49972;SDS011;71845;49.798;10.968;2023-11-22T00:54:07;5.07;;;2.53;;
49972;SDS011;71845;49.798;10.968;2023-11-22T00:56:34;5.88;;;2.25;;
49972;SDS011;71845;49.798;10.968;2023-11-22T00:59:01;4.75;;;2.10;;
49972;SDS011;71845;49.798;10.968;2023-11-22T01:01:30;5.25;;;2.25;;
49972;SDS011;71845;49.798;10.968;2023-11-22T01:03:57;5.38;;;2.30;;
49972;SDS011;71845;49.798;10.968;2023-11-22T01:06:24;5.13;;;2.35;;
49972;SDS011;71845;49.798;10.968;2023-11-22T01:08:52;3.50;;;1.75;;
49972;SDS011;71845;49.798;10.968;2023-11-22T01:11:19;4.93;;;2.40;;
49972;SDS011;71845;49.798;10.968;2023-11-22T01:13:46;3.90;;;2.10;;
49972;SDS011;71845;49.798;10.968;2023-11-22T01:16:13;3.97;;;2.00;;
49972;SDS011;71845;49.798;10.968;2023-11-22T01:18:42;4.25;;;2.15;;
49972;SDS011;71845;49.798;10.968;2023-11-22T01:21:11;5.03;;;1.95;;
49972;SDS011;71845;49.798;10.968;2023-11-22T01:23:39;4.40;;;2.13;;
49972;SDS011;71845;49.798;10.968;2023-11-22T01:26:07;3.75;;;1.73;;
49972;SDS011;71845;49.798;10.968;2023-11-22T01:28:35;4.07;;;1.80;;
49972;SDS011;71845;49.798;10.968;2023-11-22T01:31:02;4.07;;;1.80;;
49972;SDS011;71845;49.798;10.968;2023-11-22T01:33:30;4.28;;;1.92;;
49972;SDS011;71845;49.798;10.968;2023-11-22T01:35:57;4.63;;;1.90;;
49972;SDS011;71845;49.798;10.968;2023-11-22T01:38:24;3.67;;;1.77;;
49972;SDS011;71845;49.798;10.968;2023-11-22T01:40:52;3.90;;;2.08;;
49972;SDS011;71845;49.798;10.968;2023-11-22T01:43:21;4.32;;;2.08;;
49972;SDS011;71845;49.798;10.968;2023-11-22T01:45:52;5.25;;;2.42;;
49972;SDS011;71845;49.798;10.968;2023-11-22T01:48:19;3.55;;;1.70;;
49972;SDS011;71845;49.798;10.968;2023-11-22T01:50:47;5.03;;;2.20;;
49972;SDS011;71845;49.798;10.968;2023-11-22T01:53:14;3.45;;;1.80;;
49972;SDS011;71845;49.798;10.968;2023-11-22T01:55:47;5.25;;;2.28;;
49972;SDS011;71845;49.798;10.968;2023-11-22T01:58:14;2.83;;;1.70;;
49972;SDS011;71845;49.798;10.968;2023-11-22T02:00:43;3.42;;;1.80;;
49972;SDS011;71845;49.798;10.968;2023-11-22T02:03:14;4.88;;;2.00;;
49972;SDS011;71845;49.798;10.968;2023-11-22T02:05:42;4.47;;;2.13;;
49972;SDS011;71845;49.798;10.968;2023-11-22T02:08:11;4.47;;;2.50;;
49972;SDS011;71845;49.798;10.968;2023-11-22T02:10:40;3.85;;;2.20;;
49972;SDS011;71845;49.798;10.968;2023-11-22T02:13:07;3.92;;;1.90;;
49972;SDS011;71845;49.798;10.968;2023-11-22T02:15:35;6.35;;;2.40;;
49972;SDS011;71845;49.798;10.968;2023-11-22T02:18:04;3.65;;;1.95;;
49972;SDS011;71845;49.798;10.968;2023-11-22T02:20:31;4.68;;;2.10;;
49972;SDS011;71845;49.798;10.968;2023-11-22T02:23:03;4.88;;;2.40;;
49972;SDS011;71845;49.798;10.968;2023-11-22T02:25:35;4.45;;;1.90;;
49972;SDS011;71845;49.798;10.968;2023-11-22T02:28:02;3.90;;;2.00;;
49972;SDS011;71845;49.798;10.968;2023-11-22T02:30:29;5.28;;;2.20;;
49972;SDS011;71845;49.798;10.968;2023-11-22T02:32:57;5.75;;;2.55;;
49972;SDS011;71845;49.798;10.968;2023-11-22T02:35:24;3.30;;;2.00;;
49972;SDS011;71845;49.798;10.968;2023-11-22T02:37:52;5.22;;;2.85;;
49972;SDS011;71845;49.798;10.968;2023-11-22T02:40:22;4.05;;;2.05;;
49972;SDS011;71845;49.798;10.968;2023-11-22T02:42:51;3.47;;;1.95;;
49972;SDS011;71845;49.798;10.968;2023-11-22T02:45:20;5.32;;;2.70;;
49972;SDS011;71845;49.798;10.968;2023-11-22T02:47:49;5.22;;;2.28;;
49972;SDS011;71845;49.798;10.968;2023-11-22T02:50:18;4.97;;;2.15;;
49972;SDS011;71845;49.798;10.968;2023-11-22T02:52:45;3.55;;;2.10;;
49972;SDS011;71845;49.798;10.968;2023-11-22T02:55:12;4.07;;;1.92;;
49972;SDS011;71845;49.798;10.968;2023-11-22T02:57:41;5.20;;;2.03;;
49972;SDS011;71845;49.798;10.968;2023-11-22T03:00:09;3.88;;;1.75;;
49972;SDS011;71845;49.798;10.968;2023-11-22T03:02:38;5.13;;;2.30;;
49972;SDS011;71845;49.798;10.968;2023-11-22T03:05:07;5.55;;;2.85;;
49972;SDS011;71845;49.798;10.968;2023-11-22T03:07:34;4.93;;;2.95;;
49972;SDS011;71845;49.798;10.968;2023-11-22T03:10:02;5.95;;;2.15;;
49972;SDS011;71845;49.798;10.968;2023-11-22T03:12:41;4.47;;;2.10;;
49972;SDS011;71845;49.798;10.968;2023-11-22T03:15:09;4.95;;;2.70;;
49972;SDS011;71845;49.798;10.968;2023-11-22T03:17:38;3.88;;;2.20;;
49972;SDS011;71845;49.798;10.968;2023-11-22T03:20:06;6.75;;;3.10;;
49972;SDS011;71845;49.798;10.968;2023-11-22T03:22:36;5.75;;;2.88;;
49972;SDS011;71845;49.798;10.968;2023-11-22T03:25:04;5.95;;;3.00;;
49972;SDS011;71845;49.798;10.968;2023-11-22T03:27:35;5.50;;;3.03;;
49972;SDS011;71845;49.798;10.968;2023-11-22T03:30:03;6.65;;;3.60;;
49972;SDS011;71845;49.798;10.968;2023-11-22T03:32:34;8.75;;;3.78;;
49972;SDS011;71845;49.798;10.968;2023-11-22T03:35:04;8.07;;;4.22;;
49972;SDS011;71845;49.798;10.968;2023-11-22T03:37:32;6.18;;;3.70;;
49972;SDS011;71845;49.798;10.968;2023-11-22T03:39:59;8.27;;;3.40;;
49972;SDS011;71845;49.798;10.968;2023-11-22T03:42:26;6.72;;;3.80;;
49972;SDS011;71845;49.798;10.968;2023-11-22T03:44:54;7.00;;;3.95;;
49972;SDS011;71845;49.798;10.968;2023-11-22T03:47:25;6.68;;;3.30;;
49972;SDS011;71845;49.798;10.968;2023-11-22T03:49:52;10.07;;;4.80;;
49972;SDS011;71845;49.798;10.968;2023-11-22T03:52:19;8.55;;;3.85;;
49972;SDS011;71845;49.798;10.968;2023-11-22T03:54:46;6.80;;;3.63;;
49972;SDS011;71845;49.798;10.968;2023-11-22T03:57:13;5.95;;;3.15;;
49972;SDS011;71845;49.798;10.968;2023-11-22T03:59:40;7.22;;;3.85;;
49972;SDS011;71845;49.798;10.968;2023-11-22T04:02:08;6.70;;;3.70;;
49972;SDS011;71845;49.798;10.968;2023-11-22T04:04:36;8.80;;;4.15;;
49972;SDS011;71845;49.798;10.968;2023-11-22T04:07:05;9.75;;;4.05;;
49972;SDS011;71845;49.798;10.968;2023-11-22T04:09:32;6.95;;;3.47;;
49972;SDS011;71845;49.798;10.968;2023-11-22T04:11:59;6.85;;;3.92;;
49972;SDS011;71845;49.798;10.968;2023-11-22T04:14:25;5.43;;;3.25;;
49972;SDS011;71845;49.798;10.968;2023-11-22T04:16:53;8.60;;;3.85;;
49972;SDS011;71845;49.798;10.968;2023-11-22T04:19:20;8.90;;;4.15;;
49972;SDS011;71845;49.798;10.968;2023-11-22T04:21:49;7.50;;;3.95;;
49972;SDS011;71845;49.798;10.968;2023-11-22T04:24:19;7.45;;;3.38;;
49972;SDS011;71845;49.798;10.968;2023-11-22T04:26:46;6.90;;;3.80;;
49972;SDS011;71845;49.798;10.968;2023-11-22T04:29:14;8.25;;;3.85;;
49972;SDS011;71845;49.798;10.968;2023-11-22T04:31:42;7.68;;;3.85;;
49972;SDS011;71845;49.798;10.968;2023-11-22T04:34:09;5.97;;;3.42;;
49972;SDS011;71845;49.798;10.968;2023-11-22T04:36:36;9.65;;;3.90;;
49972;SDS011;71845;49.798;10.968;2023-11-22T04:39:05;8.50;;;4.05;;
49972;SDS011;71845;49.798;10.968;2023-11-22T04:41:33;9.80;;;3.92;;
49972;SDS011;71845;49.798;10.968;2023-11-22T04:44:03;8.25;;;3.65;;
49972;SDS011;71845;49.798;10.968;2023-11-22T04:46:30;10.02;;;3.95;;
49972;SDS011;71845;49.798;10.968;2023-11-22T04:48:57;9.82;;;4.72;;
49972;SDS011;71845;49.798;10.968;2023-11-22T04:51:24;10.05;;;4.38;;
49972;SDS011;71845;49.798;10.968;2023-11-22T04:53:54;8.32;;;4.70;;
49972;SDS011;71845;49.798;10.968;2023-11-22T04:56:22;9.57;;;4.82;;
49972;SDS011;71845;49.798;10.968;2023-11-22T04:58:52;9.23;;;4.85;;
49972;SDS011;71845;49.798;10.968;2023-11-22T05:01:19;9.43;;;5.25;;
49972;SDS011;71845;49.798;10.968;2023-11-22T05:03:46;9.35;;;4.40;;
49972;SDS011;71845;49.798;10.968;2023-11-22T05:06:13;8.50;;;4.80;;
49972;SDS011;71845;49.798;10.968;2023-11-22T05:08:41;8.80;;;4.72;;
49972;SDS011;71845;49.798;10.968;2023-11-22T05:11:08;8.93;;;4.95;;
49972;SDS011;71845;49.798;10.968;2023-11-22T05:13:37;9.30;;;4.43;;
49972;SDS011;71845;49.798;10.968;2023-11-22T05:16:04;9.63;;;4.75;;
49972;SDS011;71845;49.798;10.968;2023-11-22T05:18:32;9.55;;;4.90;;
49972;SDS011;71845;49.798;10.968;2023-11-22T05:20:59;6.72;;;3.60;;
49972;SDS011;71845;49.798;10.968;2023-11-22T05:23:28;10.52;;;4.38;;
49972;SDS011;71845;49.798;10.968;2023-11-22T05:25:55;7.97;;;4.60;;
49972;SDS011;71845;49.798;10.968;2023-11-22T05:28:22;8.80;;;4.97;;
49972;SDS011;71845;49.798;10.968;2023-11-22T05:30:50;8.00;;;4.15;;
49972;SDS011;71845;49.798;10.968;2023-11-22T05:33:20;10.13;;;5.00;;
49972;SDS011;71845;49.798;10.968;2023-11-22T05:35:48;7.85;;;4.50;;
49972;SDS011;71845;49.798;10.968;2023-11-22T05:38:16;10.75;;;4.90;;
49972;SDS011;71845;49.798;10.968;2023-11-22T05:40:44;9.75;;;4.95;;
49972;SDS011;71845;49.798;10.968;2023-11-22T05:43:10;8.20;;;5.18;;
49972;SDS011;71845;49.798;10.968;2023-11-22T05:45:38;9.43;;;4.95;;
49972;SDS011;71845;49.798;10.968;2023-11-22T05:48:07;8.57;;;4.30;;
49972;SDS011;71845;49.798;10.968;2023-11-22T05:50:33;8.88;;;4.97;;
49972;SDS011;71845;49.798;10.968;2023-11-22T05:53:08;8.30;;;4.65;;
49972;SDS011;71845;49.798;10.968;2023-11-22T05:55:36;7.07;;;3.63;;
49972;SDS011;71845;49.798;10.968;2023-11-22T05:58:04;8.95;;;4.35;;
49972;SDS011;71845;49.798;10.968;2023-11-22T06:00:30;8.32;;;4.07;;
49972;SDS011;71845;49.798;10.968;2023-11-22T06:02:57;8.63;;;4.88;;
49972;SDS011;71845;49.798;10.968;2023-11-22T06:05:25;7.32;;;3.85;;
49972;SDS011;71845;49.798;10.968;2023-11-22T06:07:52;7.88;;;4.30;;
49972;SDS011;71845;49.798;10.968;2023-11-22T06:10:19;9.55;;;4.55;;
49972;SDS011;71845;49.798;10.968;2023-11-22T06:12:46;10.20;;;5.40;;
49972;SDS011;71845;49.798;10.968;2023-11-22T06:15:15;9.02;;;4.97;;
49972;SDS011;71845;49.798;10.968;2023-11-22T06:17:43;8.88;;;5.25;;
49972;SDS011;71845;49.798;10.968;2023-11-22T06:20:11;9.77;;;5.65;;
49972;SDS011;71845;49.798;10.968;2023-11-22T06:22:40;10.00;;;5.70;;
49972;SDS011;71845;49.798;10.968;2023-11-22T06:25:08;10.70;;;5.90;;
49972;SDS011;71845;49.798;10.968;2023-11-22T06:27:35;12.38;;;6.35;;
49972;SDS011;71845;49.798;10.968;2023-11-22T06:30:03;11.23;;;5.63;;
49972;SDS011;71845;49.798;10.968;2023-11-22T06:32:31;10.43;;;6.50;;
49972;SDS011;71845;49.798;10.968;2023-11-22T06:34:59;13.30;;;6.57;;
49972;SDS011;71845;49.798;10.968;2023-11-22T06:37:26;9.48;;;5.32;;
49972;SDS011;71845;49.798;10.968;2023-11-22T06:39:54;10.15;;;5.35;;
49972;SDS011;71845;49.798;10.968;2023-11-22T06:42:22;12.23;;;6.40;;
49972;SDS011;71845;49.798;10.968;2023-11-22T06:44:49;12.48;;;6.20;;
49972;SDS011;71845;49.798;10.968;2023-11-22T06:47:18;13.15;;;6.40;;
49972;SDS011;71845;49.798;10.968;2023-11-22T06:49:44;9.57;;;5.50;;
49972;SDS011;71845;49.798;10.968;2023-11-22T06:52:19;11.98;;;5.85;;
49972;SDS011;71845;49.798;10.968;2023-11-22T06:54:46;14.13;;;6.88;;
49972;SDS011;71845;49.798;10.968;2023-11-22T06:57:14;14.18;;;6.85;;
49972;SDS011;71845;49.798;10.968;2023-11-22T06:59:41;9.90;;;5.85;;
49972;SDS011;71845;49.798;10.968;2023-11-22T07:02:09;13.73;;;5.85;;
49972;SDS011;71845;49.798;10.968;2023-11-22T07:04:37;10.15;;;5.60;;
49972;SDS011;71845;49.798;10.968;2023-11-22T07:07:04;12.52;;;6.38;;
49972;SDS011;71845;49.798;10.968;2023-11-22T07:09:36;11.77;;;7.10;;
49972;SDS011;71845;49.798;10.968;2023-11-22T07:12:03;13.05;;;5.95;;
49972;SDS011;71845;49.798;10.968;2023-11-22T07:14:33;13.80;;;6.38;;
49972;SDS011;71845;49.798;10.968;2023-11-22T07:17:14;9.73;;;5.75;;
49972;SDS011;71845;49.798;10.968;2023-11-22T07:19:42;13.65;;;5.88;;
49972;SDS011;71845;49.798;10.968;2023-11-22T07:22:12;10.93;;;6.30;;
49972;SDS011;71845;49.798;10.968;2023-11-22T07:24:42;10.02;;;5.18;;
49972;SDS011;71845;49.798;10.968;2023-11-22T07:27:10;10.65;;;6.22;;
49972;SDS011;71845;49.798;10.968;2023-11-22T07:29:37;10.23;;;5.40;;
49972;SDS011;71845;49.798;10.968;2023-11-22T07:32:06;12.77;;;6.07;;
49972;SDS011;71845;49.798;10.968;2023-11-22T07:34:35;10.10;;;5.65;;
49972;SDS011;71845;49.798;10.968;2023-11-22T07:37:02;10.00;;;5.70;;
49972;SDS011;71845;49.798;10.968;2023-11-22T07:39:30;10.90;;;5.20;;
49972;SDS011;71845;49.798;10.968;2023-11-22T07:41:57;8.80;;;4.57;;
49972;SDS011;71845;49.798;10.968;2023-11-22T07:44:24;9.02;;;5.53;;
49972;SDS011;71845;49.798;10.968;2023-11-22T07:46:52;9.52;;;4.93;;
49972;SDS011;71845;49.798;10.968;2023-11-22T07:49:20;9.93;;;4.85;;
49972;SDS011;71845;49.798;10.968;2023-11-22T07:51:49;9.55;;;5.28;;
49972;SDS011;71845;49.798;10.968;2023-11-22T07:54:17;8.73;;;4.68;;
49972;SDS011;71845;49.798;10.968;2023-11-22T07:56:47;8.90;;;5.10;;
49972;SDS011;71845;49.798;10.968;2023-11-22T07:59:14;9.07;;;4.15;;
49972;SDS011;71845;49.798;10.968;2023-11-22T08:01:42;8.10;;;4.50;;
49972;SDS011;71845;49.798;10.968;2023-11-22T08:04:09;9.48;;;4.75;;
49972;SDS011;71845;49.798;10.968;2023-11-22T08:06:37;7.93;;;4.15;;
49972;SDS011;71845;49.798;10.968;2023-11-22T08:09:05;8.73;;;3.88;;
49972;SDS011;71845;49.798;10.968;2023-11-22T08:11:33;7.22;;;4.00;;
49972;SDS011;71845;49.798;10.968;2023-11-22T08:14:00;8.05;;;4.15;;
49972;SDS011;71845;49.798;10.968;2023-11-22T08:16:27;6.53;;;3.72;;
49972;SDS011;71845;49.798;10.968;2023-11-22T08:18:54;7.95;;;4.38;;
49972;SDS011;71845;49.798;10.968;2023-11-22T08:21:21;7.35;;;3.40;;
49972;SDS011;71845;49.798;10.968;2023-11-22T08:23:48;8.60;;;3.95;;
49972;SDS011;71845;49.798;10.968;2023-11-22T08:26:17;7.28;;;3.47;;
49972;SDS011;71845;49.798;10.968;2023-11-22T08:28:44;6.40;;;3.03;;
49972;SDS011;71845;49.798;10.968;2023-11-22T08:31:11;7.15;;;2.92;;
49972;SDS011;71845;49.798;10.968;2023-11-22T08:33:42;6.57;;;3.08;;
49972;SDS011;71845;49.798;10.968;2023-11-22T08:36:09;5.50;;;3.33;;
49972;SDS011;71845;49.798;10.968;2023-11-22T08:38:35;6.13;;;2.97;;
49972;SDS011;71845;49.798;10.968;2023-11-22T08:41:05;7.03;;;3.90;;
49972;SDS011;71845;49.798;10.968;2023-11-22T08:43:38;6.45;;;3.13;;
49972;SDS011;71845;49.798;10.968;2023-11-22T08:46:04;7.03;;;3.15;;
49972;SDS011;71845;49.798;10.968;2023-11-22T08:48:33;6.03;;;3.13;;
49972;SDS011;71845;49.798;10.968;2023-11-22T08:50:58;5.60;;;3.28;;
49972;SDS011;71845;49.798;10.968;2023-11-22T08:53:26;6.93;;;2.90;;
49972;SDS011;71845;49.798;10.968;2023-11-22T08:55:55;6.57;;;3.05;;
49972;SDS011;71845;49.798;10.968;2023-11-22T08:58:22;5.88;;;2.90;;
49972;SDS011;71845;49.798;10.968;2023-11-22T09:00:50;6.53;;;3.80;;
49972;SDS011;71845;49.798;10.968;2023-11-22T09:03:18;8.18;;;3.83;;
49972;SDS011;71845;49.798;10.968;2023-11-22T09:05:45;5.85;;;3.03;;
49972;SDS011;71845;49.798;10.968;2023-11-22T09:08:12;7.15;;;3.78;;
49972;SDS011;71845;49.798;10.968;2023-11-22T09:10:40;7.90;;;4.03;;
49972;SDS011;71845;49.798;10.968;2023-11-22T09:13:07;7.30;;;3.28;;
49972;SDS011;71845;49.798;10.968;2023-11-22T09:15:36;11.02;;;4.13;;
49972;SDS011;71845;49.798;10.968;2023-11-22T09:18:05;8.30;;;3.55;;
49972;SDS011;71845;49.798;10.968;2023-11-22T09:20:33;7.18;;;3.83;;
49972;SDS011;71845;49.798;10.968;2023-11-22T09:22:59;9.95;;;3.67;;
49972;SDS011;71845;49.798;10.968;2023-11-22T09:25:27;7.63;;;3.60;;
49972;SDS011;71845;49.798;10.968;2023-11-22T09:27:54;9.90;;;3.70;;
49972;SDS011;71845;49.798;10.968;2023-11-22T09:30:24;7.00;;;3.35;;
49972;SDS011;71845;49.798;10.968;2023-11-22T09:33:00;7.75;;;3.65;;
49972;SDS011;71845;49.798;10.968;2023-11-22T09:35:28;6.22;;;3.28;;
49972;SDS011;71845;49.798;10.968;2023-11-22T09:37:57;8.02;;;4.10;;
49972;SDS011;71845;49.798;10.968;2023-11-22T09:40:24;7.63;;;4.20;;
49972;SDS011;71845;49.798;10.968;2023-11-22T09:42:55;6.85;;;4.13;;
49972;SDS011;71845;49.798;10.968;2023-11-22T09:45:23;7.30;;;3.70;;
49972;SDS011;71845;49.798;10.968;2023-11-22T09:47:50;7.03;;;3.75;;
49972;SDS011;71845;49.798;10.968;2023-11-22T09:50:17;8.13;;;3.30;;
49972;SDS011;71845;49.798;10.968;2023-11-22T09:52:49;9.85;;;6.50;;
49972;SDS011;71845;49.798;10.968;2023-11-22T09:55:19;27.92;;;16.55;;
49972;SDS011;71845;49.798;10.968;2023-11-22T09:57:47;15.20;;;9.55;;
49972;SDS011;71845;49.798;10.968;2023-11-22T10:00:16;10.00;;;6.47;;
49972;SDS011;71845;49.798;10.968;2023-11-22T10:02:46;10.55;;;5.60;;
49972;SDS011;71845;49.798;10.968;2023-11-22T10:05:13;10.68;;;5.28;;
49972;SDS011;71845;49.798;10.968;2023-11-22T10:07:40;6.78;;;3.53;;
49972;SDS011;71845;49.798;10.968;2023-11-22T10:10:09;8.32;;;3.95;;
49972;SDS011;71845;49.798;10.968;2023-11-22T10:12:42;5.75;;;3.15;;
49972;SDS011;71845;49.798;10.968;2023-11-22T10:15:12;6.47;;;3.50;;
49972;SDS011;71845;49.798;10.968;2023-11-22T10:17:40;9.40;;;3.28;;
49972;SDS011;71845;49.798;10.968;2023-11-22T10:20:07;5.78;;;3.45;;
49972;SDS011;71845;49.798;10.968;2023-11-22T10:22:45;7.50;;;3.47;;
49972;SDS011;71845;49.798;10.968;2023-11-22T10:25:15;6.78;;;3.38;;
49972;SDS011;71845;49.798;10.968;2023-11-22T10:27:44;6.20;;;3.28;;
49972;SDS011;71845;49.798;10.968;2023-11-22T10:30:11;5.95;;;3.20;;
49972;SDS011;71845;49.798;10.968;2023-11-22T10:32:38;6.05;;;3.40;;
49972;SDS011;71845;49.798;10.968;2023-11-22T10:35:05;5.55;;;3.20;;
49972;SDS011;71845;49.798;10.968;2023-11-22T10:37:36;6.25;;;2.92;;
49972;SDS011;71845;49.798;10.968;2023-11-22T10:40:03;7.35;;;3.55;;
49972;SDS011;71845;49.798;10.968;2023-11-22T10:42:32;5.38;;;2.83;;
49972;SDS011;71845;49.798;10.968;2023-11-22T10:44:59;6.65;;;3.20;;
49972;SDS011;71845;49.798;10.968;2023-11-22T10:47:28;6.78;;;3.35;;
49972;SDS011;71845;49.798;10.968;2023-11-22T10:49:56;7.35;;;3.83;;
49972;SDS011;71845;49.798;10.968;2023-11-22T10:52:26;5.00;;;3.05;;
49972;SDS011;71845;49.798;10.968;2023-11-22T10:54:55;6.47;;;3.30;;
49972;SDS011;71845;49.798;10.968;2023-11-22T10:57:36;6.15;;;3.20;;
49972;SDS011;71845;49.798;10.968;2023-11-22T11:00:09;8.18;;;3.92;;
49972;SDS011;71845;49.798;10.968;2023-11-22T11:02:40;7.32;;;3.88;;
49972;SDS011;71845;49.798;10.968;2023-11-22T11:05:10;6.28;;;3.05;;
49972;SDS011;71845;49.798;10.968;2023-11-22T11:07:44;6.35;;;3.10;;
49972;SDS011;71845;49.798;10.968;2023-11-22T11:10:16;5.75;;;3.05;;
49972;SDS011;71845;49.798;10.968;2023-11-22T11:12:47;7.90;;;3.90;;
49972;SDS011;71845;49.798;10.968;2023-11-22T11:15:14;6.35;;;3.35;;
49972;SDS011;71845;49.798;10.968;2023-11-22T11:17:44;6.35;;;3.40;;
49972;SDS011;71845;49.798;10.968;2023-11-22T11:20:13;6.25;;;3.53;;
49972;SDS011;71845;49.798;10.968;2023-11-22T11:22:42;6.47;;;3.33;;
49972;SDS011;71845;49.798;10.968;2023-11-22T11:25:13;6.78;;;3.58;;
49972;SDS011;71845;49.798;10.968;2023-11-22T11:27:40;5.97;;;3.58;;
49972;SDS011;71845;49.798;10.968;2023-11-22T11:33:15;6.57;;;3.67;;
49972;SDS011;71845;49.798;10.968;2023-11-22T11:35:45;5.57;;;3.13;;
49972;SDS011;71845;49.798;10.968;2023-11-22T11:38:14;6.10;;;3.30;;
49972;SDS011;71845;49.798;10.968;2023-11-22T11:40:42;7.07;;;2.85;;
49972;SDS011;71845;49.798;10.968;2023-11-22T11:43:10;6.50;;;3.35;;
49972;SDS011;71845;49.798;10.968;2023-11-22T11:45:38;6.32;;;3.35;;
49972;SDS011;71845;49.798;10.968;2023-11-22T11:48:11;6.25;;;3.50;;
49972;SDS011;71845;49.798;10.968;2023-11-22T11:50:40;11.95;;;5.53;;
49972;SDS011;71845;49.798;10.968;2023-11-22T11:53:07;8.68;;;4.22;;
49972;SDS011;71845;49.798;10.968;2023-11-22T11:55:35;7.75;;;3.13;;
49972;SDS011;71845;49.798;10.968;2023-11-22T11:58:05;5.68;;;2.78;;
49972;SDS011;71845;49.798;10.968;2023-11-22T12:00:34;5.82;;;3.38;;
49972;SDS011;71845;49.798;10.968;2023-11-22T12:03:06;5.75;;;3.22;;
49972;SDS011;71845;49.798;10.968;2023-11-22T12:05:34;6.65;;;3.47;;
49972;SDS011;71845;49.798;10.968;2023-11-22T12:08:03;8.00;;;3.38;;
49972;SDS011;71845;49.798;10.968;2023-11-22T12:10:30;7.60;;;3.60;;
49972;SDS011;71845;49.798;10.968;2023-11-22T12:12:57;5.65;;;3.30;;
49972;SDS011;71845;49.798;10.968;2023-11-22T12:15:24;6.30;;;3.03;;
49972;SDS011;71845;49.798;10.968;2023-11-22T12:17:51;6.63;;;3.65;;
49972;SDS011;71845;49.798;10.968;2023-11-22T12:20:22;6.72;;;3.53;;
49972;SDS011;71845;49.798;10.968;2023-11-22T12:22:51;7.45;;;3.20;;
49972;SDS011;71845;49.798;10.968;2023-11-22T12:25:20;8.30;;;4.15;;
49972;SDS011;71845;49.798;10.968;2023-11-22T12:27:47;8.05;;;4.03;;
49972;SDS011;71845;49.798;10.968;2023-11-22T12:30:30;6.65;;;3.60;;
49972;SDS011;71845;49.798;10.968;2023-11-22T12:33:01;10.38;;;6.00;;
49972;SDS011;71845;49.798;10.968;2023-11-22T12:35:29;7.63;;;3.72;;
49972;SDS011;71845;49.798;10.968;2023-11-22T12:38:00;6.07;;;3.08;;
49972;SDS011;71845;49.798;10.968;2023-11-22T12:40:29;7.68;;;4.97;;
49972;SDS011;71845;49.798;10.968;2023-11-22T12:42:58;6.85;;;3.92;;
49972;SDS011;71845;49.798;10.968;2023-11-22T12:45:26;7.60;;;4.13;;
49972;SDS011;71845;49.798;10.968;2023-11-22T12:47:54;9.40;;;4.40;;
49972;SDS011;71845;49.798;10.968;2023-11-22T12:50:30;7.90;;;4.10;;
49972;SDS011;71845;49.798;10.968;2023-11-22T12:53:09;8.02;;;4.82;;
49972;SDS011;71845;49.798;10.968;2023-11-22T12:55:42;6.57;;;3.92;;
49972;SDS011;71845;49.798;10.968;2023-11-22T12:58:10;5.43;;;3.33;;
49972;SDS011;71845;49.798;10.968;2023-11-22T13:00:37;7.13;;;3.70;;
49972;SDS011;71845;49.798;10.968;2023-11-22T13:03:04;6.95;;;3.47;;
49972;SDS011;71845;49.798;10.968;2023-11-22T13:05:31;6.85;;;3.38;;
49972;SDS011;71845;49.798;10.968;2023-11-22T13:07:58;7.55;;;4.38;;
49972;SDS011;71845;49.798;10.968;2023-11-22T13:10:24;7.88;;;4.15;;
49972;SDS011;71845;49.798;10.968;2023-11-22T13:12:55;7.55;;;3.85;;
49972;SDS011;71845;49.798;10.968;2023-11-22T13:15:22;7.10;;;3.63;;
49972;SDS011;71845;49.798;10.968;2023-11-22T13:17:51;7.45;;;3.53;;
49972;SDS011;71845;49.798;10.968;2023-11-22T13:20:20;6.22;;;3.58;;
49972;SDS011;71845;49.798;10.968;2023-11-22T13:22:51;6.82;;;3.30;;
49972;SDS011;71845;49.798;10.968;2023-11-22T13:25:18;7.15;;;3.95;;
49972;SDS011;71845;49.798;10.968;2023-11-22T13:27:45;5.22;;;3.10;;
49972;SDS011;71845;49.798;10.968;2023-11-22T13:30:14;7.22;;;3.78;;
49972;SDS011;71845;49.798;10.968;2023-11-22T13:32:46;5.70;;;3.17;;
49972;SDS011;71845;49.798;10.968;2023-11-22T13:35:12;6.93;;;3.90;;
49972;SDS011;71845;49.798;10.968;2023-11-22T13:37:42;7.50;;;3.85;;
49972;SDS011;71845;49.798;10.968;2023-11-22T13:40:10;6.43;;;3.42;;
49972;SDS011;71845;49.798;10.968;2023-11-22T13:42:42;7.20;;;3.70;;
49972;SDS011;71845;49.798;10.968;2023-11-22T13:45:10;7.88;;;3.70;;
49972;SDS011;71845;49.798;10.968;2023-11-22T13:47:42;6.57;;;3.70;;
49972;SDS011;71845;49.798;10.968;2023-11-22T13:50:12;8.82;;;3.80;;
49972;SDS011;71845;49.798;10.968;2023-11-22T13:52:40;6.63;;;3.67;;
49972;SDS011;71845;49.798;10.968;2023-11-22T13:55:07;6.28;;;3.20;;
49972;SDS011;71845;49.798;10.968;2023-11-22T13:57:37;7.80;;;3.78;;
49972;SDS011;71845;49.798;10.968;2023-11-22T14:00:07;6.97;;;3.95;;
49972;SDS011;71845;49.798;10.968;2023-11-22T14:02:37;7.70;;;3.40;;
49972;SDS011;71845;49.798;10.968;2023-11-22T14:05:05;12.95;;;5.18;;
49972;SDS011;71845;49.798;10.968;2023-11-22T14:07:34;9.50;;;3.65;;
49972;SDS011;71845;49.798;10.968;2023-11-22T14:10:02;7.38;;;3.83;;
49972;SDS011;71845;49.798;10.968;2023-11-22T14:12:31;7.82;;;3.72;;
49972;SDS011;71845;49.798;10.968;2023-11-22T14:14:58;6.68;;;3.78;;
49972;SDS011;71845;49.798;10.968;2023-11-22T14:17:25;6.85;;;3.72;;
49972;SDS011;71845;49.798;10.968;2023-11-22T14:19:52;7.20;;;3.78;;
49972;SDS011;71845;49.798;10.968;2023-11-22T14:22:22;7.35;;;3.58;;
49972;SDS011;71845;49.798;10.968;2023-11-22T14:24:49;8.63;;;4.30;;
49972;SDS011;71845;49.798;10.968;2023-11-22T14:27:17;6.65;;;3.50;;
49972;SDS011;71845;49.798;10.968;2023-11-22T14:29:44;5.28;;;3.30;;
49972;SDS011;71845;49.798;10.968;2023-11-22T14:32:14;7.28;;;3.38;;
49972;SDS011;71845;49.798;10.968;2023-11-22T14:34:41;6.00;;;3.53;;
49972;SDS011;71845;49.798;10.968;2023-11-22T14:37:09;6.72;;;3.50;;
49972;SDS011;71845;49.798;10.968;2023-11-22T14:39:38;8.82;;;4.40;;
49972;SDS011;71845;49.798;10.968;2023-11-22T14:42:05;7.85;;;4.07;;